Time;durP1;ratioP1;P1;durP2;ratioP2;P2;SDS_P1;SDS_P2;PMS_P1;PMS_P2;Temp;Humidity;BMP_temperature;BMP_pressure;BME280_temperature;BME280_humidity;BME280_pressure;Samples;Min_cycle;Max_cycle;Signal;HPM_P1;HPM_P2
2023/03/01 00:01:53;;;;;;;36.97;20.17;;;-2.70;22.90;;;;;;6245715;22;20012;-86
2023/03/01 00:04:18;;;;;;;33.55;18.83;;;-2.70;26.70;;;;;;6195904;22;20018;-86
2023/03/01 00:06:45;;;;;;;34.55;18.80;;;-2.70;23.00;;;;;;6244856;22;20070;-86
2023/03/01 00:09:12;;;;;;;37.80;20.58;;;-2.60;3.50;;;;;;6246440;22;20016;-86
2023/03/01 00:11:38;;;;;;;43.13;21.58;;;-2.60;1.00;;;;;;6244708;22;20043;-86
2023/03/01 00:14:07;;;;;;;40.50;21.20;;;-2.60;6.20;;;;;;6220545;22;20011;-87
2023/03/01 00:16:36;;;;;;;42.83;21.27;;;-2.50;1.00;;;;;;6194966;22;20022;-86
2023/03/01 00:19:02;;;;;;;52.60;22.80;;;-2.40;1.00;;;;;;6246181;22;20710;-86
2023/03/01 00:21:28;;;;;;;105.47;27.10;;;-2.30;2.40;;;;;;6219416;22;20016;-85
2023/03/01 00:23:55;;;;;;;61.35;24.25;;;-2.20;1.00;;;;;;6220956;22;20008;-85
2023/03/01 00:26:21;;;;;;;53.00;23.13;;;-2.10;1.00;;;;;;6245652;22;20054;-85
2023/03/01 00:28:47;;;;;;;58.90;25.33;;;-2.00;2.50;;;;;;6194510;22;20023;-85
2023/03/01 00:31:16;;;;;;;168.15;29.90;;;-1.90;1.40;;;;;;6219867;22;20014;-86
2023/03/01 00:33:43;;;;;;;385.73;33.28;;;-2.00;2.90;;;;;;6244832;22;20462;-86
2023/03/01 00:36:10;;;;;;;449.70;34.28;;;-1.90;1.00;;;;;;6219933;22;20073;-86
2023/03/01 00:38:38;;;;;;;353.60;32.38;;;-1.80;1.00;;;;;;6220041;22;20427;-85
2023/03/01 00:41:09;;;;;;;648.58;46.85;;;-1.80;1.00;;;;;;6220437;22;20012;-86
2023/03/01 00:43:37;;;;;;;421.23;32.22;;;-1.80;1.00;;;;;;6219762;22;20030;-86
2023/03/01 00:46:05;;;;;;;365.17;29.27;;;-1.80;1.00;;;;;;6220005;22;20077;-86
2023/03/01 00:48:31;;;;;;;339.00;32.45;;;-1.80;1.00;;;;;;6220144;22;20073;-85
2023/03/01 00:50:57;;;;;;;300.23;29.55;;;-1.70;1.00;;;;;;6195115;22;20015;-87
2023/03/01 00:53:22;;;;;;;196.63;25.17;;;-1.90;1.00;;;;;;6245728;22;20091;-86
2023/03/01 00:55:48;;;;;;;185.32;23.45;;;-1.70;1.00;;;;;;6169760;22;20373;-85
2023/03/01 00:58:14;;;;;;;197.15;25.85;;;-1.80;1.00;;;;;;6195212;22;20023;-86
2023/03/01 01:00:39;;;;;;;147.27;23.17;;;-1.90;1.00;;;;;;6194406;22;20015;-86
2023/03/01 01:03:05;;;;;;;126.72;21.60;;;-2.00;1.00;;;;;;6220775;22;20012;-86
2023/03/01 01:05:33;;;;;;;70.68;20.23;;;-2.10;1.00;;;;;;6170150;22;20102;-85
2023/03/01 01:07:59;;;;;;;109.40;22.23;;;-2.10;1.00;;;;;;6219890;22;20065;-86
2023/03/01 01:10:25;;;;;;;178.23;23.80;;;-2.20;1.00;;;;;;6245046;22;20016;-86
2023/03/01 01:12:50;;;;;;;133.45;22.00;;;-2.20;1.00;;;;;;6194005;22;20020;-84
2023/03/01 01:15:16;;;;;;;149.27;23.00;;;-2.20;1.00;;;;;;6220071;22;20015;-85
2023/03/01 01:17:42;;;;;;;166.93;23.10;;;-2.00;1.00;;;;;;6244049;22;20415;-85
2023/03/01 01:20:08;;;;;;;144.85;22.65;;;-2.30;1.00;;;;;;6194697;22;20011;-86
2023/03/01 01:22:34;;;;;;;145.93;22.80;;;-2.30;1.00;;;;;;6169905;22;20051;-86
2023/03/01 01:25:00;;;;;;;196.27;26.25;;;-2.30;1.00;;;;;;6218054;22;20097;-85
2023/03/01 01:27:25;;;;;;;114.45;21.10;;;-2.40;1.00;;;;;;6219386;22;20012;-85
2023/03/01 01:29:53;;;;;;;113.82;20.85;;;-2.40;1.00;;;;;;6218903;22;20023;-85
2023/03/01 01:32:18;;;;;;;74.22;19.40;;;-2.40;1.00;;;;;;6244839;22;20030;-86
2023/03/01 01:34:44;;;;;;;108.85;20.13;;;-2.50;1.00;;;;;;6194024;22;20015;-85
2023/03/01 01:37:10;;;;;;;117.60;21.92;;;-2.50;1.00;;;;;;6193911;22;20012;-85
2023/03/01 01:39:35;;;;;;;214.27;25.83;;;-2.50;1.00;;;;;;6244248;22;20022;-85
2023/03/01 01:42:01;;;;;;;188.70;25.25;;;-2.50;1.00;;;;;;6243878;22;20091;-86
2023/03/01 01:44:28;;;;;;;126.22;23.38;;;-2.60;1.00;;;;;;6219968;22;20102;-85
2023/03/01 01:47:03;;;;;;;121.85;23.90;;;-2.60;1.00;;;;;;6218940;22;20011;-85
2023/03/01 01:49:35;;;;;;;209.75;26.50;;;-2.50;1.00;;;;;;6219808;22;20094;-85
2023/03/01 01:52:07;;;;;;;108.28;20.90;;;-2.50;1.00;;;;;;6218880;22;20022;-85
2023/03/01 01:54:44;;;;;;;157.30;25.55;;;-2.60;1.00;;;;;;6245021;22;20008;-85
2023/03/01 01:57:19;;;;;;;98.25;22.17;;;-2.60;1.00;;;;;;6219168;22;20118;-86
2023/03/01 01:59:50;;;;;;;104.03;23.13;;;-2.60;1.00;;;;;;6244191;22;20012;-85
2023/03/01 02:02:16;;;;;;;126.22;25.15;;;-2.60;1.00;;;;;;6245070;22;20011;-86
2023/03/01 02:04:42;;;;;;;134.50;24.25;;;-2.70;1.00;;;;;;6219064;22;20331;-84
2023/03/01 02:07:17;;;;;;;166.35;25.48;;;-2.70;1.00;;;;;;6244435;22;20015;-85
2023/03/01 02:09:46;;;;;;;56.30;20.48;;;-2.70;1.00;;;;;;6244222;22;20386;-86
2023/03/01 02:12:18;;;;;;;57.03;22.13;;;-2.80;1.00;;;;;;6244788;22;20100;-86
2023/03/01 02:14:44;;;;;;;83.47;22.58;;;-2.80;1.00;;;;;;6219032;22;20016;-86
2023/03/01 02:17:11;;;;;;;75.60;22.27;;;-2.90;1.00;;;;;;6218864;22;20080;-86
2023/03/01 02:20:09;;;;;;;51.38;20.42;;;-2.90;1.00;;;;;;6244024;22;20016;-85
2023/03/01 02:22:37;;;;;;;43.45;19.48;;;-2.90;1.00;;;;;;6205661;22;20020;-86
2023/03/01 02:25:09;;;;;;;42.80;20.15;;;-3.00;1.00;;;;;;6243202;22;20153;-86
2023/03/01 02:27:52;;;;;;;38.00;18.73;;;-3.10;1.00;;;;;;6219141;22;20609;-85
2023/03/01 02:30:24;;;;;;;37.85;18.25;;;-3.20;1.00;;;;;;6219250;22;20012;-86
2023/03/01 02:32:50;;;;;;;38.58;19.02;;;-2.60;1.00;;;;;;6218508;22;20050;-85
2023/03/01 02:35:17;;;;;;;44.70;20.38;;;-3.00;1.00;;;;;;6192804;22;20093;-86
2023/03/01 02:37:44;;;;;;;40.90;19.88;;;-3.30;1.00;;;;;;6193514;22;20007;-86
2023/03/01 02:40:16;;;;;;;32.72;17.85;;;-3.30;1.00;;;;;;6218579;22;20024;-86
2023/03/01 02:42:55;;;;;;;34.38;18.30;;;-3.30;1.00;;;;;;6218266;22;20016;-85
2023/03/01 02:45:21;;;;;;;35.67;18.13;;;-3.30;1.00;;;;;;6244722;22;20015;-86
2023/03/01 02:47:47;;;;;;;36.00;18.48;;;-3.30;1.00;;;;;;6244104;22;20020;-84
2023/03/01 02:50:29;;;;;;;40.58;19.45;;;-3.30;1.00;;;;;;6219042;22;20019;-86
2023/03/01 02:53:28;;;;;;;36.80;18.65;;;-3.30;1.00;;;;;;6243824;22;20019;-86
2023/03/01 02:55:54;;;;;;;39.05;18.85;;;-3.40;1.00;;;;;;6218767;22;20016;-85
2023/03/01 02:58:20;;;;;;;39.13;19.48;;;-3.50;1.00;;;;;;6218847;22;20300;-86
2023/03/01 03:00:49;;;;;;;39.28;18.95;;;-3.50;1.00;;;;;;6219032;22;20058;-85
2023/03/01 03:03:16;;;;;;;37.50;19.35;;;-3.50;1.00;;;;;;6219015;22;20070;-86
2023/03/01 03:05:43;;;;;;;38.13;19.13;;;-3.50;1.00;;;;;;6219027;22;20016;-86
2023/03/01 03:08:09;;;;;;;35.30;17.90;;;-3.50;1.00;;;;;;6218019;22;20020;-86
2023/03/01 03:10:39;;;;;;;35.17;18.17;;;-3.50;1.00;;;;;;6219284;22;20003;-86
2023/03/01 03:13:14;;;;;;;38.90;19.95;;;-3.20;1.00;;;;;;6218020;22;20020;-85
2023/03/01 03:15:42;;;;;;;38.03;18.92;;;-3.60;1.00;;;;;;6244384;22;20022;-86
2023/03/01 03:18:14;;;;;;;39.83;19.85;;;-3.60;1.00;;;;;;6219595;22;20016;-86
2023/03/01 03:20:41;;;;;;;35.50;18.20;;;-3.60;1.00;;;;;;6246347;22;20339;-85
2023/03/01 03:23:07;;;;;;;37.65;19.50;;;-3.70;1.00;;;;;;6245385;22;20019;-86
2023/03/01 03:25:37;;;;;;;34.92;17.30;;;-3.70;1.00;;;;;;6221327;22;20366;-86
2023/03/01 03:28:09;;;;;;;36.67;18.25;;;-3.80;1.00;;;;;;6219033;22;20744;-86
2023/03/01 03:30:36;;;;;;;36.40;18.42;;;-3.80;1.00;;;;;;6220253;22;20015;-86
2023/03/01 03:33:03;;;;;;;33.40;17.25;;;-3.80;1.00;;;;;;6169866;22;20026;-86
2023/03/01 03:35:37;;;;;;;30.30;16.40;;;-3.80;1.00;;;;;;6245807;22;20011;-87
2023/03/01 03:38:06;;;;;;;33.13;17.48;;;-3.80;1.00;;;;;;6219593;22;20012;-86
2023/03/01 03:40:39;;;;;;;32.50;17.83;;;-3.90;1.00;;;;;;6246114;22;20015;-86
2023/03/01 03:43:07;;;;;;;30.05;17.13;;;-3.90;1.00;;;;;;6244575;22;20082;-86
2023/03/01 03:45:33;;;;;;;31.65;17.60;;;-3.90;1.00;;;;;;6219525;22;20020;-86
2023/03/01 03:48:00;;;;;;;37.00;18.83;;;-3.80;1.00;;;;;;6219124;22;20015;-86
2023/03/01 03:50:25;;;;;;;37.20;18.92;;;-3.80;1.00;;;;;;6195393;22;20019;-85
2023/03/01 03:52:51;;;;;;;32.58;17.90;;;-3.80;1.00;;;;;;6245438;22;20441;-86
2023/03/01 03:55:19;;;;;;;31.83;17.08;;;-3.80;1.00;;;;;;6220231;22;20016;-87
2023/03/01 03:57:51;;;;;;;31.08;17.08;;;-4.10;1.00;;;;;;6245054;22;20008;-86
2023/03/01 04:00:20;;;;;;;29.88;16.75;;;-4.00;1.00;;;;;;6219711;22;20516;-87
2023/03/01 04:02:47;;;;;;;32.53;17.25;;;-4.00;1.00;;;;;;6245179;22;20016;-86
2023/03/01 04:05:15;;;;;;;30.00;17.45;;;-4.00;1.00;;;;;;6219709;22;20019;-87
2023/03/01 04:07:41;;;;;;;30.70;16.38;;;-3.50;1.00;;;;;;6245165;22;20051;-86
2023/03/01 04:10:10;;;;;;;32.78;16.80;;;-4.00;1.00;;;;;;6220038;22;20097;-87
2023/03/01 04:12:36;;;;;;;29.77;16.88;;;-4.00;1.00;;;;;;6220510;22;20439;-87
2023/03/01 04:15:12;;;;;;;30.67;16.50;;;-4.00;1.00;;;;;;6220030;22;20035;-87
2023/03/01 04:17:46;;;;;;;31.58;16.90;;;-4.00;1.00;;;;;;6245791;22;20011;-87
2023/03/01 04:20:17;;;;;;;31.92;17.90;;;-4.10;1.00;;;;;;6244934;22;20094;-87
2023/03/01 04:22:46;;;;;;;29.85;16.20;;;-4.10;1.00;;;;;;6246302;22;20440;-86
2023/03/01 04:25:13;;;;;;;29.92;16.73;;;-4.10;1.00;;;;;;6245248;22;20012;-88
2023/03/01 04:27:40;;;;;;;27.10;15.13;;;-4.10;1.00;;;;;;6245851;22;20019;-87
2023/03/01 04:30:07;;;;;;;29.98;16.23;;;-4.20;1.00;;;;;;6220242;22;20051;-87
2023/03/01 04:32:33;;;;;;;27.40;15.82;;;-4.20;1.00;;;;;;6220940;22;20026;-86
2023/03/01 04:34:59;;;;;;;29.33;16.05;;;-4.30;1.00;;;;;;6245736;22;20053;-87
2023/03/01 04:37:25;;;;;;;29.25;16.45;;;-4.50;1.00;;;;;;6245153;22;20012;-87
2023/03/01 04:39:51;;;;;;;27.25;15.98;;;-3.90;1.00;;;;;;6219991;22;20795;-88
2023/03/01 04:42:18;;;;;;;30.42;17.17;;;-4.20;1.00;;;;;;6194387;22;20023;-87
2023/03/01 04:44:44;;;;;;;29.05;16.63;;;-3.90;1.00;;;;;;6245298;22;20015;-87
2023/03/01 04:47:10;;;;;;;29.10;16.77;;;-4.20;1.00;;;;;;6195482;22;20090;-88
2023/03/01 04:49:36;;;;;;;28.23;16.25;;;-4.30;1.00;;;;;;6245048;22;20043;-87
2023/03/01 04:52:02;;;;;;;30.02;16.15;;;-4.30;1.00;;;;;;6195334;22;20012;-85
2023/03/01 04:54:29;;;;;;;28.75;15.82;;;-4.30;1.00;;;;;;6245692;22;20070;-88
2023/03/01 04:56:55;;;;;;;29.92;16.45;;;-4.40;1.00;;;;;;6245051;22;20132;-88
2023/03/01 04:59:23;;;;;;;28.83;16.50;;;-4.40;1.00;;;;;;6244367;22;20330;-87
2023/03/01 05:01:50;;;;;;;29.13;16.23;;;-4.50;1.00;;;;;;6220174;22;20023;-88
2023/03/01 05:04:16;;;;;;;29.40;16.27;;;-4.30;1.00;;;;;;6219114;22;20433;-88
2023/03/01 05:06:42;;;;;;;29.33;15.80;;;-4.40;1.00;;;;;;6245534;22;20082;-87
2023/03/01 05:09:08;;;;;;;29.00;16.42;;;-4.50;1.00;;;;;;6220189;22;20419;-88
2023/03/01 05:11:35;;;;;;;31.65;15.82;;;-4.40;1.00;;;;;;6220201;22;20021;-87
2023/03/01 05:14:02;;;;;;;28.08;16.05;;;-4.40;1.00;;;;;;6194794;22;20114;-88
2023/03/01 05:16:30;;;;;;;30.08;16.90;;;-4.40;1.00;;;;;;6218887;22;20094;-87
2023/03/01 05:18:56;;;;;;;28.42;15.40;;;-4.50;1.00;;;;;;6244983;22;20015;-88
2023/03/01 05:21:22;;;;;;;28.20;16.08;;;-4.50;1.00;;;;;;6244771;22;20011;-86
2023/03/01 05:23:48;;;;;;;27.10;15.15;;;-4.50;1.00;;;;;;6245691;22;20446;-88
2023/03/01 05:26:14;;;;;;;24.90;14.90;;;-4.60;1.00;;;;;;6219105;22;20015;-88
2023/03/01 05:28:40;;;;;;;27.67;15.23;;;-4.60;1.00;;;;;;6245328;22;20015;-86
2023/03/01 05:31:09;;;;;;;28.20;16.17;;;-4.60;1.00;;;;;;6220053;22;20166;-86
2023/03/01 05:33:39;;;;;;;26.38;15.32;;;-4.60;1.00;;;;;;6219654;22;20070;-87
2023/03/01 05:36:07;;;;;;;24.83;14.48;;;-4.70;1.00;;;;;;6244218;22;20030;-87
2023/03/01 05:38:33;;;;;;;27.92;15.52;;;-4.60;1.00;;;;;;6244148;22;20033;-87
2023/03/01 05:40:59;;;;;;;24.33;14.35;;;-4.70;1.00;;;;;;6218386;22;20016;-86
2023/03/01 05:43:25;;;;;;;23.60;14.13;;;-4.30;1.00;;;;;;6218394;22;20035;-86
2023/03/01 05:45:51;;;;;;;24.23;14.50;;;-4.70;1.00;;;;;;6219902;22;20019;-87
2023/03/01 05:48:19;;;;;;;25.80;15.50;;;-4.70;1.00;;;;;;6220133;22;20047;-87
2023/03/01 05:50:46;;;;;;;27.30;15.05;;;-4.80;1.00;;;;;;6246078;22;20019;-87
2023/03/01 05:53:20;;;;;;;26.67;15.77;;;-4.80;1.00;;;;;;6194660;22;20016;-85
2023/03/01 05:55:47;;;;;;;28.13;16.17;;;-4.80;1.00;;;;;;6220055;22;20039;-87
2023/03/01 05:58:19;;;;;;;27.58;15.18;;;-4.80;1.00;;;;;;6192862;22;20034;-86
2023/03/01 06:00:47;;;;;;;28.35;15.15;;;-4.80;1.00;;;;;;6219254;22;20012;-87
2023/03/01 06:03:15;;;;;;;28.40;15.70;;;-4.70;1.00;;;;;;6244452;22;20065;-87
2023/03/01 06:05:41;;;;;;;27.55;15.40;;;-4.70;1.00;;;;;;6244240;22;20658;-86
2023/03/01 06:08:10;;;;;;;27.55;15.52;;;-4.70;1.00;;;;;;6220193;22;20020;-87
2023/03/01 06:10:36;;;;;;;27.35;15.27;;;-4.50;1.00;;;;;;6194551;22;20012;-88
2023/03/01 06:13:02;;;;;;;26.02;16.00;;;-4.70;1.00;;;;;;6219986;22;20112;-87
2023/03/01 06:15:27;;;;;;;25.73;14.57;;;-4.70;1.00;;;;;;6245136;22;20022;-88
2023/03/01 06:17:57;;;;;;;28.50;15.35;;;-4.70;1.00;;;;;;6220505;22;20008;-85
2023/03/01 06:20:25;;;;;;;25.25;14.95;;;-4.70;1.00;;;;;;6244375;22;20505;-86
2023/03/01 06:22:51;;;;;;;28.88;16.08;;;-4.70;1.00;;;;;;6244454;22;20446;-87
2023/03/01 06:25:22;;;;;;;30.33;16.65;;;-4.70;1.00;;;;;;6218693;22;20133;-87
2023/03/01 06:27:48;;;;;;;31.35;17.70;;;-4.70;1.00;;;;;;6223242;22;20014;-87
2023/03/01 06:30:17;;;;;;;29.58;16.17;;;-4.70;1.00;;;;;;6235680;22;20016;-87
2023/03/01 06:32:43;;;;;;;26.90;15.27;;;-4.70;1.00;;;;;;6232875;22;20020;-86
2023/03/01 06:35:13;;;;;;;26.35;14.65;;;-4.60;1.00;;;;;;6257168;22;20008;-87
2023/03/01 06:37:40;;;;;;;26.80;15.90;;;-4.60;1.00;;;;;;6251078;22;20480;-87
2023/03/01 06:40:07;;;;;;;24.50;14.15;;;-4.50;1.00;;;;;;6225697;22;20090;-86
2023/03/01 06:42:38;;;;;;;29.42;15.90;;;-4.50;1.00;;;;;;6245714;22;20012;-86
2023/03/01 06:45:05;;;;;;;23.80;14.60;;;-4.50;1.00;;;;;;6245009;22;20490;-86
2023/03/01 06:47:32;;;;;;;25.13;13.82;;;-4.50;1.00;;;;;;6243345;22;20019;-85
2023/03/01 06:50:02;;;;;;;27.42;15.13;;;-4.50;1.00;;;;;;6215228;22;20026;-86
2023/03/01 06:52:28;;;;;;;27.00;15.05;;;-4.50;1.00;;;;;;6188809;22;20046;-87
2023/03/01 06:54:54;;;;;;;26.60;14.90;;;-4.50;1.00;;;;;;6190976;22;20016;-87
2023/03/01 06:57:20;;;;;;;26.70;15.02;;;-4.50;1.00;;;;;;6186865;22;20111;-87
2023/03/01 06:59:47;;;;;;;27.30;15.18;;;-4.50;1.00;;;;;;6218543;22;20047;-86
2023/03/01 07:02:13;;;;;;;26.33;15.00;;;-4.40;1.00;;;;;;6221957;22;20438;-87
2023/03/01 07:04:39;;;;;;;28.60;15.73;;;-4.40;1.00;;;;;;6246791;22;20026;-87
2023/03/01 07:07:05;;;;;;;29.58;17.90;;;-4.30;1.00;;;;;;6247091;22;20327;-90
2023/03/01 07:09:31;;;;;;;31.48;16.77;;;-4.20;1.00;;;;;;6247189;22;20012;-89
2023/03/01 07:11:57;;;;;;;28.73;15.68;;;-4.20;1.00;;;;;;6222387;22;20121;-89
2023/03/01 07:14:26;;;;;;;32.60;16.58;;;-4.10;1.00;;;;;;6247223;22;20430;-86
2023/03/01 07:16:52;;;;;;;29.67;16.33;;;-4.10;1.00;;;;;;6221845;22;20016;-90
2023/03/01 07:19:19;;;;;;;29.55;16.63;;;-4.10;1.00;;;;;;6247293;22;20065;-87
2023/03/01 07:21:44;;;;;;;32.45;16.73;;;-4.00;1.00;;;;;;6221813;22;20008;-90
2023/03/01 07:24:10;;;;;;;30.35;16.98;;;-4.00;1.00;;;;;;6247607;22;20081;-89
2023/03/01 07:26:36;;;;;;;27.88;16.20;;;-3.90;1.00;;;;;;6247335;22;20023;-89
2023/03/01 07:29:04;;;;;;;31.27;16.75;;;-3.90;1.00;;;;;;6247476;22;20086;-85
2023/03/01 07:31:30;;;;;;;30.55;16.85;;;-3.70;1.00;;;;;;6246703;22;20035;-91
2023/03/01 07:33:56;;;;;;;28.92;17.02;;;-3.80;1.00;;;;;;6247185;22;20035;-86
2023/03/01 07:36:22;;;;;;;29.92;17.20;;;-3.80;1.00;;;;;;6247133;22;20015;-90
2023/03/01 07:38:48;;;;;;;32.35;17.70;;;-3.70;1.00;;;;;;6221013;22;20015;-85
2023/03/01 07:41:14;;;;;;;29.55;16.85;;;-3.10;1.00;;;;;;6246593;22;20008;-90
2023/03/01 07:43:40;;;;;;;32.75;17.48;;;-3.60;1.00;;;;;;6221137;22;20027;-89
2023/03/01 07:46:06;;;;;;;31.17;17.52;;;-3.30;1.00;;;;;;6246823;22;20018;-89
2023/03/01 07:48:33;;;;;;;32.83;17.30;;;-3.50;1.00;;;;;;6246535;22;20430;-86
2023/03/01 07:51:04;;;;;;;33.53;18.25;;;-3.40;1.00;;;;;;6247162;22;20011;-90
2023/03/01 07:53:31;;;;;;;32.88;17.52;;;-3.30;1.00;;;;;;6246847;22;20016;-90
2023/03/01 07:56:10;;;;;;;34.85;19.35;;;-3.30;1.00;;;;;;6246788;22;20011;-90
2023/03/01 07:58:38;;;;;;;34.38;19.52;;;-3.20;1.00;;;;;;6220151;22;20022;-90
2023/03/01 08:01:06;;;;;;;37.67;20.40;;;-3.10;1.00;;;;;;6247178;22;20011;-92
2023/03/01 08:03:32;;;;;;;39.25;21.67;;;-2.90;1.00;;;;;;6220221;22;20019;-90
2023/03/01 08:06:03;;;;;;;38.47;20.83;;;-2.90;1.00;;;;;;6196461;22;20015;-91
2023/03/01 08:08:29;;;;;;;42.05;20.98;;;-2.70;1.00;;;;;;6246050;22;20016;-86
2023/03/01 08:10:59;;;;;;;41.95;21.30;;;-2.60;1.00;;;;;;6196748;22;20423;-90
2023/03/01 08:13:25;;;;;;;43.25;22.77;;;-2.50;1.00;;;;;;6221434;22;20443;-90
2023/03/01 08:15:51;;;;;;;44.60;22.85;;;-2.40;1.00;;;;;;6246262;22;20085;-91
2023/03/01 08:18:17;;;;;;;46.80;23.83;;;-2.40;1.00;;;;;;6246717;22;20018;-91
2023/03/01 08:20:43;;;;;;;52.00;26.15;;;-2.20;1.00;;;;;;6221371;22;20011;-91
2023/03/01 08:23:09;;;;;;;53.20;25.88;;;-2.20;1.00;;;;;;6246285;22;20385;-91
2023/03/01 08:25:34;;;;;;;53.03;26.25;;;-2.10;1.00;;;;;;6246294;22;20046;-91
2023/03/01 08:28:00;;;;;;;63.03;28.00;;;-2.50;1.00;;;;;;6246441;22;20409;-89
2023/03/01 08:30:26;;;;;;;64.07;29.05;;;-1.90;1.00;;;;;;6246652;22;20012;-90
2023/03/01 08:32:52;;;;;;;71.45;30.45;;;-1.80;1.00;;;;;;6220015;22;20104;-90
2023/03/01 08:35:18;;;;;;;70.35;31.35;;;-1.70;1.00;;;;;;6221372;22;20054;-90
2023/03/01 08:37:44;;;;;;;80.45;34.15;;;-1.60;1.00;;;;;;6245472;22;20011;-90
2023/03/01 08:40:10;;;;;;;69.65;31.38;;;-1.50;1.00;;;;;;6221812;22;20015;-89
2023/03/01 08:42:37;;;;;;;76.05;35.13;;;-1.30;1.00;;;;;;6219649;22;20027;-90
2023/03/01 08:45:06;;;;;;;81.25;34.72;;;-1.30;1.00;;;;;;6220942;22;20055;-89
2023/03/01 08:47:33;;;;;;;79.15;34.63;;;-1.20;1.00;;;;;;6247024;22;20110;-86
2023/03/01 08:49:59;;;;;;;86.90;37.17;;;-1.00;1.00;;;;;;6221306;22;20101;-90
2023/03/01 08:52:25;;;;;;;82.15;37.60;;;-0.60;1.00;;;;;;6245783;22;20011;-90
2023/03/01 08:54:52;;;;;;;89.82;38.17;;;-0.80;1.00;;;;;;6220602;22;20205;-90
2023/03/01 08:57:18;;;;;;;84.10;37.38;;;-0.70;1.00;;;;;;6220470;22;20077;-88
2023/03/01 08:59:43;;;;;;;91.63;37.10;;;-0.60;1.00;;;;;;6245543;22;20043;-91
2023/03/01 09:02:13;;;;;;;87.78;37.80;;;-0.50;1.00;;;;;;6245901;22;20019;-90
2023/03/01 09:04:39;;;;;;;83.20;37.67;;;-0.40;1.00;;;;;;6220381;22;20022;-90
2023/03/01 09:07:04;;;;;;;101.72;42.58;;;-0.30;1.00;;;;;;6246042;22;20011;-90
2023/03/01 09:09:30;;;;;;;96.70;40.53;;;-0.20;1.00;;;;;;6221103;22;20012;-87
2023/03/01 09:11:56;;;;;;;85.82;38.92;;;-0.10;1.00;;;;;;6194745;22;20015;-89
2023/03/01 09:14:21;;;;;;;102.78;39.58;;;0.50;1.00;;;;;;6220734;22;20095;-87
2023/03/01 09:16:47;;;;;;;90.55;39.00;;;0.10;1.00;;;;;;6244604;22;20015;-85
2023/03/01 09:19:13;;;;;;;93.43;40.17;;;0.20;1.00;;;;;;6171073;22;20047;-88
2023/03/01 09:21:39;;;;;;;93.53;40.45;;;0.30;1.00;;;;;;6170481;22;20434;-83
2023/03/01 09:24:06;;;;;;;101.03;42.47;;;0.40;1.00;;;;;;6246161;22;20019;-88
2023/03/01 09:26:31;;;;;;;104.15;44.13;;;0.50;1.00;;;;;;6195791;22;20023;-87
2023/03/01 09:28:57;;;;;;;101.70;42.70;;;0.50;1.70;;;;;;6220037;22;20835;-88
2023/03/01 09:31:24;;;;;;;98.15;41.33;;;0.60;3.60;;;;;;6245097;22;20011;-87
2023/03/01 09:33:52;;;;;;;96.93;40.58;;;0.70;5.20;;;;;;6194900;22;20023;-87
2023/03/01 09:36:20;;;;;;;98.18;40.58;;;0.70;10.90;;;;;;6219520;22;20023;-88
2023/03/01 09:38:48;;;;;;;95.20;40.15;;;0.90;14.30;;;;;;6219542;22;20012;-88
2023/03/01 09:41:44;;;;;;;91.18;39.42;;;0.90;17.80;;;;;;6244355;22;20011;-87
2023/03/01 09:44:29;;;;;;;94.30;38.53;;;1.00;21.10;;;;;;6245044;22;20051;-87
2023/03/01 09:46:56;;;;;;;89.32;40.35;;;1.10;24.10;;;;;;6219025;22;20011;-86
2023/03/01 09:49:27;;;;;;;89.70;40.35;;;1.10;26.10;;;;;;6195380;22;20392;-85
2023/03/01 09:52:22;;;;;;;83.18;37.88;;;1.30;28.80;;;;;;6219510;22;20012;-84
2023/03/01 09:54:52;;;;;;;80.70;38.15;;;1.40;31.60;;;;;;6244479;22;20091;-86
2023/03/01 09:57:30;;;;;;;74.90;34.90;;;1.60;32.90;;;;;;6244666;22;20065;-84
2023/03/01 10:00:10;;;;;;;70.75;35.55;;;1.80;33.00;;;;;;6219323;22;20020;-86
2023/03/01 10:02:43;;;;;;;73.20;33.78;;;2.20;32.50;;;;;;6244891;22;20061;-84
2023/03/01 10:05:30;;;;;;;62.28;29.80;;;2.20;31.40;;;;;;6245032;22;20058;-86
2023/03/01 10:08:18;;;;;;;62.53;30.30;;;2.30;29.80;;;;;;6219554;22;20012;-87
2023/03/01 10:10:47;;;;;;;55.45;28.05;;;2.50;28.50;;;;;;6244443;22;20050;-84
2023/03/01 10:13:31;;;;;;;51.35;26.67;;;2.70;27.40;;;;;;6219951;22;20022;-87
2023/03/01 10:16:03;;;;;;;56.35;26.77;;;2.80;21.00;;;;;;6219011;22;20016;-86
2023/03/01 10:18:32;;;;;;;48.33;25.02;;;2.90;10.00;;;;;;6219409;22;20020;-86
2023/03/01 10:21:17;;;;;;;44.60;21.95;;;3.00;1.00;;;;;;6244503;22;20098;-88
2023/03/01 10:23:43;;;;;;;41.13;22.15;;;3.10;1.00;;;;;;6219791;22;20022;-87
2023/03/01 10:26:23;;;;;;;41.00;20.13;;;3.20;1.00;;;;;;6219868;22;20042;-87
2023/03/01 10:28:58;;;;;;;39.15;20.83;;;3.30;1.00;;;;;;6223283;22;20094;-86
2023/03/01 10:31:36;;;;;;;36.13;17.58;;;3.30;1.00;;;;;;6248462;22;20069;-87
2023/03/01 10:34:09;;;;;;;35.03;16.95;;;3.70;1.00;;;;;;6222504;22;20022;-87
2023/03/01 10:36:37;;;;;;;34.13;18.40;;;3.50;99.90;;;;;;6248089;22;20423;-86
2023/03/01 10:39:16;;;;;;;26.20;13.77;;;3.50;99.90;;;;;;6222502;22;20427;-87
2023/03/01 10:42:05;;;;;;;26.70;14.50;;;3.60;99.90;;;;;;6222479;22;20098;-88
2023/03/01 10:44:49;;;;;;;21.83;12.38;;;3.60;99.90;;;;;;6223092;22;20054;-86
2023/03/01 10:47:14;;;;;;;23.83;13.00;;;4.00;99.90;;;;;;6248928;22;20022;-89
2023/03/01 10:49:52;;;;;;;25.05;11.60;;;3.80;99.90;;;;;;6223146;22;20015;-89
2023/03/01 10:52:21;;;;;;;16.52;8.35;;;3.90;71.40;;;;;;6226431;22;20038;-88
2023/03/01 10:55:21;;;;;;;17.17;9.57;;;3.90;1.00;;;;;;6232395;22;20016;-88
2023/03/01 10:57:46;;;;;;;21.52;12.02;;;4.10;1.00;;;;;;6260906;22;20015;-86
2023/03/01 11:00:24;;;;;;;24.95;13.93;;;4.20;1.00;;;;;;6209329;22;20232;-88
2023/03/01 11:02:59;;;;;;;26.92;15.73;;;4.20;1.00;;;;;;6254936;22;20011;-86
2023/03/01 11:05:28;;;;;;;28.70;15.30;;;4.40;1.00;;;;;;6229374;22;20015;-89
2023/03/01 11:07:58;;;;;;;28.90;15.77;;;4.50;1.00;;;;;;6204273;22;20008;-85
2023/03/01 11:10:34;;;;;;;31.85;16.73;;;4.60;1.00;;;;;;6226503;22;20428;-87
2023/03/01 11:13:18;;;;;;;29.60;16.40;;;4.70;99.90;;;;;;6225000;22;20019;-88
2023/03/01 11:15:59;;;;;;;29.13;17.48;;;4.90;99.90;;;;;;6251074;22;20014;-88
2023/03/01 11:18:26;;;;;;;31.50;17.67;;;5.00;99.90;;;;;;6249890;22;20012;-90
2023/03/01 11:20:54;;;;;;;33.63;18.27;;;5.10;99.90;;;;;;6249847;22;20430;-89
2023/03/01 11:23:21;;;;;;;34.88;19.08;;;5.20;99.90;;;;;;6250096;22;20030;-88
2023/03/01 11:26:07;;;;;;;32.25;18.30;;;5.20;99.90;;;;;;6250162;22;20353;-88
2023/03/01 11:28:37;;;;;;;35.20;18.48;;;5.50;99.90;;;;;;6250827;22;20069;-89
2023/03/01 11:31:11;;;;;;;28.58;17.73;;;5.60;99.90;;;;;;6224492;22;20114;-88
2023/03/01 11:33:41;;;;;;;35.03;18.67;;;5.70;99.90;;;;;;6224699;22;20016;-88
2023/03/01 11:36:31;;;;;;;32.67;18.42;;;5.80;99.90;;;;;;6249203;22;20016;-89
2023/03/01 11:39:02;;;;;;;32.65;17.13;;;5.80;99.90;;;;;;6247742;22;20012;-85
2023/03/01 11:41:31;;;;;;;30.42;18.33;;;6.00;99.90;;;;;;6198083;22;20015;-89
2023/03/01 11:44:02;;;;;;;35.45;20.67;;;6.10;99.90;;;;;;6221592;22;20012;-85
2023/03/01 11:46:31;;;;;;;29.27;16.52;;;6.20;99.90;;;;;;6222635;22;20019;-90
2023/03/01 11:48:59;;;;;;;29.33;16.80;;;6.40;99.90;;;;;;6248110;22;20058;-86
2023/03/01 11:51:45;;;;;;;28.55;17.48;;;6.40;99.90;;;;;;6249199;22;20011;-89
2023/03/01 11:54:31;;;;;;;26.30;16.00;;;6.50;99.90;;;;;;6204483;22;20019;-89
2023/03/01 11:57:25;;;;;;;28.73;16.60;;;6.50;99.90;;;;;;6222108;22;20019;-89
2023/03/01 12:00:20;;;;;;;28.80;17.05;;;6.60;99.90;;;;;;6222245;22;20784;-89
2023/03/01 12:02:57;;;;;;;31.30;18.13;;;6.60;99.90;;;;;;6185963;22;20065;-89
2023/03/01 12:05:52;;;;;;;26.77;16.52;;;6.60;99.90;;;;;;6221459;22;20012;-90
2023/03/01 12:08:49;;;;;;;33.63;18.65;;;6.70;99.90;;;;;;6246444;22;20046;-88
2023/03/01 12:11:36;;;;;;;31.10;17.38;;;6.90;99.90;;;;;;6246055;22;20012;-89
2023/03/01 12:14:29;;;;;;;28.52;16.98;;;6.90;99.90;;;;;;6246261;22;20020;-85
2023/03/01 12:17:16;;;;;;;28.17;16.40;;;7.10;99.90;;;;;;6169649;22;20012;-89
2023/03/01 12:19:57;;;;;;;26.63;14.73;;;7.10;99.90;;;;;;6221721;22;20020;-89
2023/03/01 12:22:26;;;;;;;24.23;14.98;;;7.10;99.90;;;;;;6220942;22;20016;-89
2023/03/01 12:25:13;;;;;;;26.77;15.02;;;7.20;99.90;;;;;;6220906;22;20016;-88
2023/03/01 12:28:02;;;;;;;27.33;16.55;;;7.20;90.10;;;;;;6221974;22;20011;-89
2023/03/01 12:30:51;;;;;;;24.00;14.80;;;7.20;99.90;;;;;;6245894;22;20024;-88
2023/03/01 12:33:24;;;;;;;24.60;14.63;;;7.20;99.90;;;;;;6245509;22;20053;-87
2023/03/01 12:36:22;;;;;;;24.20;13.95;;;7.30;99.90;;;;;;6246264;22;20016;-88
2023/03/01 12:39:09;;;;;;;21.42;13.98;;;7.40;78.40;;;;;;6246292;22;20015;-88
2023/03/01 12:42:09;;;;;;;21.77;13.82;;;7.40;99.30;;;;;;6245862;22;20370;-89
2023/03/01 12:44:37;;;;;;;21.90;14.13;;;7.50;16.90;;;;;;6236428;22;20431;-89
2023/03/01 12:47:39;;;;;;;23.60;14.43;;;7.50;99.90;;;;;;6246270;22;20835;-88
2023/03/01 12:50:19;;;;;;;22.17;13.43;;;7.70;1.00;;;;;;6144153;22;20094;-85
2023/03/01 12:52:53;;;;;;;23.80;14.93;;;7.70;22.70;;;;;;6245567;22;20008;-89